Latest Coastal Weather Observations for Cape Naturaliste

IDW60701

Issued at 9:53 am WST Monday 27 February 2017 (issued every 10 minutes, with the page automatically refreshed every 10 minutes)

About coastal observations | Map of coastal stations | Coastal observations for WA | Marine services | Other Formats
Station Details ID: 009519 Name: CAPE NATURALISTE Lat: -33.54 Lon: 115.02 Height: 109.0 m
Data from the previous 72 hours. | See also: Recent months at Cape Naturaliste
Date/Time
WST
Temp
°C
Wind Pressure Rain since
9am
mm
Weather Cloud Vis
km
Sea
Height
m
Swell
Dir  Spd
kts
Gust
kts
hPa Trend Height
m
Period
s
Dir
27/09:30am 22.5 ESE 6 8 1016.7 - 0.0 - - - - - - -
27/09:00am 20.9 E 10 12 1016.6 - 0.0 - - - - - - -
27/08:30am 22.3 SE 8 11 1016.3 - 0.0 - - - - - - -
27/08:00am 19.5 SSE 8 12 1016.0 - 0.0 - - - - - - -
27/07:30am 18.8 SE 10 14 1015.7 - 0.0 - - - - - - -
27/07:00am 17.4 SE 10 12 1015.7 - 0.0 - - - - - - -
27/06:30am 16.0 SE 11 15 1015.4 - 0.0 - - - - - - -
27/06:00am 15.6 SE 11 14 1015.2 - 0.0 - - - - - - -
27/05:30am 15.5 SSE 11 14 1014.8 - 0.0 - - - - - - -
27/05:00am 15.4 SSE 12 16 1014.8 - 0.0 - - - - - - -
27/04:30am 14.8 SSE 10 13 1014.6 - 0.0 - - - - - - -
27/04:00am 14.9 SSE 9 13 1014.6 - 0.0 - - - - - - -
27/03:30am 15.3 SE 11 14 1014.6 - 0.0 - - - - - - -
27/03:00am 15.3 SSE 10 13 1014.8 - 0.0 - - - - - - -
27/02:30am 15.6 SSE 10 13 1014.8 - 0.0 - - - - - - -
27/02:00am 15.9 SSE 12 14 1015.0 - 0.0 - - - - - - -
27/01:30am 15.8 SSE 11 13 1015.0 - 0.0 - - - - - - -
27/01:00am 16.0 SSE 9 11 1015.1 - 0.0 - - - - - - -
27/12:30am 16.1 SSE 10 13 1014.9 - 0.0 - - - - - - -
27/12:00am 16.1 S 9 11 1015.0 - 0.0 - - - - - - -
 
Date/Time
WST
Temp
°C
Wind Pressure Rain since
9am
mm
Weather Cloud Vis
km
Sea
Height
m
Swell
Dir  Spd
kts
Gust
kts
hPa Trend Height
m
Period
s
Dir
26/11:30pm 16.4 SSE 8 12 1015.0 - 0.0 - - - - - - -
26/11:00pm 16.9 S 11 16 1014.9 - 0.0 - - - - - - -
26/10:30pm 16.7 S 11 15 1015.1 - 0.0 - - - - - - -
26/10:00pm 16.8 S 11 15 1015.0 - 0.0 - - - - - - -
26/09:30pm 16.9 SSW 15 17 1014.9 - 0.0 - - - - - - -
26/09:00pm 17.3 S 14 17 1014.9 - 0.0 - - - - - - -
26/08:30pm 17.6 SSW 13 17 1014.8 - 0.0 - - - - - - -
26/08:00pm 17.9 SSW 13 17 1014.4 - 0.0 - - - - - - -
26/07:30pm 18.3 SSW 16 22 1014.0 - 0.0 - - - - - - -
26/07:00pm 18.6 SSW 15 21 1014.0 - 0.0 - - - - - - -
26/06:30pm 19.5 SSW 18 25 1013.4 - 0.0 - - - - - - -
26/06:00pm 20.0 SSW 19 27 1013.2 - 0.0 - - - - - - -
26/05:36pm 20.5 SSW 20 30 1012.9 - 0.0 - - - - - - -
26/05:30pm 20.6 SSW 20 27 1012.9 - 0.0 - - - - - - -
26/05:00pm 21.1 SSW 20 27 1012.8 - 0.0 - - - - - - -
26/04:30pm 21.6 SSW 21 28 1012.6 - 0.0 - - - - - - -
26/04:00pm 22.0 SSW 20 29 1012.5 - 0.0 - - - - - - -
26/03:30pm 22.6 SSW 21 28 1012.4 - 0.0 - - - - - - -
26/03:00pm 22.6 SSW 20 28 1012.5 - 0.0 - - - - - - -
26/02:36pm 22.5 SSW 22 32 1012.4 - 0.0 - - - - - - -
26/02:30pm 22.5 SSW 21 29 1012.4 - 0.0 - - - - - - -
26/02:00pm 22.9 SSW 19 27 1012.6 - 0.0 - - - - - - -
26/01:30pm 23.0 SSW 20 28 1012.7 - 0.0 - - - - - - -
26/01:00pm 23.2 SSW 20 28 1012.5 - 0.0 - - - - - - -
26/12:30pm 22.6 SSW 19 27 1012.6 - 0.0 - - - - - - -
26/12:00pm 23.1 SSW 20 25 1012.7 - 0.0 - - - - - - -
26/11:30am 22.5 SSW 19 26 1013.0 - 0.0 - - - - - - -
26/11:00am 22.4 SSW 18 25 1012.9 - 0.0 - - - - - - -
26/10:30am 22.6 SSW 19 25 1012.9 - 0.0 - - - - - - -
26/10:00am 21.6 SSW 17 23 1012.9 - 0.0 - - - - - - -
26/09:30am 21.4 SSW 14 19 1012.9 - 0.0 - - - - - - -
26/09:00am 21.6 S 12 16 1012.9 - 0.0 - - - - - - -
26/08:30am 19.8 S 14 18 1013.2 - 0.0 - - - - - - -
26/08:00am 18.1 S 14 18 1013.3 - 0.0 - - - - - - -
26/07:30am 16.7 S 12 17 1013.3 - 0.0 - - - - - - -
26/07:00am 15.6 SSW 9 12 1013.5 - 0.0 - - - - - - -
26/06:30am 15.1 S 11 14 1012.7 - 0.0 - - - - - - -
26/06:00am 15.0 SSW 11 14 1012.7 - 0.0 - - - - - - -
26/05:30am 14.8 SSE 10 13 1012.0 - 0.0 - - - - - - -
26/05:00am 14.9 S 10 15 1012.1 - 0.0 - - - - - - -
26/04:30am 15.3 SSW 12 16 1012.1 - 0.0 - - - - - - -
26/04:00am 14.9 S 8 11 1011.9 - 0.0 - - - - - - -
26/03:30am 15.0 S 9 13 1012.0 - 0.0 - - - - - - -
26/03:00am 15.3 S 12 15 1012.1 - 0.0 - - - - - - -
26/02:30am 15.1 S 8 11 1012.4 - 0.0 - - - - - - -
26/02:00am 15.4 SSE 9 13 1012.4 - 0.0 - - - - - - -
26/01:30am 15.5 S 8 10 1012.7 - 0.0 - - - - - - -
26/01:00am 15.8 S 10 13 1012.6 - 0.0 - - - - - - -
26/12:30am 16.0 S 10 13 1012.8 - 0.0 - - - - - - -
26/12:00am 16.2 S 10 16 1012.9 - 0.0 - - - - - - -
 
Date/Time
WST
Temp
°C
Wind Pressure Rain since
9am
mm
Weather Cloud Vis
km
Sea
Height
m
Swell
Dir  Spd
kts
Gust
kts
hPa Trend Height
m
Period
s
Dir
25/11:30pm 16.7 S 15 22 1012.6 - 0.0 - - - - - - -
25/11:00pm 16.9 S 14 19 1012.8 - 0.0 - - - - - - -
25/10:30pm 17.0 S 12 19 1012.9 - 0.0 - - - - - - -
25/10:00pm 17.2 S 15 19 1013.0 - 0.0 - - - - - - -
25/09:30pm 17.5 SSW 14 20 1012.9 - 0.0 - - - - - - -
25/09:00pm 18.1 SSW 20 25 1012.5 - 0.0 - - - - - - -
25/08:30pm 18.6 SSW 19 24 1012.1 - 0.0 - - - - - - -
25/08:00pm 18.7 SSW 18 24 1011.8 - 0.0 - - - - - - -
25/07:30pm 18.9 SSW 19 25 1011.9 - 0.0 - - - - - - -
25/07:00pm 19.0 SSW 19 23 1011.8 - 0.0 - - - - - - -
25/06:30pm 19.7 SSW 20 27 1011.6 - 0.0 - - - - - - -
25/06:00pm 20.9 SSW 17 21 1011.8 - 0.0 - - - - - - -
25/05:30pm 22.8 SSW 14 20 1012.0 - 0.0 - - - - - - -
25/05:00pm 24.6 SSW 11 14 1012.2 - 0.0 - - - - - - -
25/04:30pm 25.3 SW 11 14 1012.4 - 0.0 - - - - - - -
25/04:00pm 27.6 SW 9 13 1012.5 - 0.0 - - - - - - -
25/03:30pm 28.6 SSW 7 10 1012.8 - 0.0 - - - - - - -
25/03:00pm 29.1 WSW 8 11 1013.2 - 0.0 - - - - - - -
25/02:30pm 30.4 NNW 10 13 1013.4 - 0.0 - - - - - - -
25/02:00pm 30.3 N 10 13 1013.7 - 0.0 - - - - - - -
25/01:30pm 30.2 N 11 15 1013.9 - 0.0 - - - - - - -
25/01:00pm 29.6 N 11 14 1014.3 - 0.0 - - - - - - -
25/12:30pm 30.2 N 10 14 1014.6 - 0.0 - - - - - - -
25/12:00pm 30.4 NNE 10 13 1014.9 - 0.0 - - - - - - -
25/11:30am 29.5 NNE 10 14 1015.2 - 0.0 - - - - - - -
25/11:00am 29.6 NE 10 13 1015.6 - 0.0 - - - - - - -
25/10:30am 29.4 NE 10 13 1015.8 - 0.0 - - - - - - -
25/10:00am 29.0 NE 11 15 1015.8 - 0.0 - - - - - - -
25/09:30am 28.4 ENE 10 14 1015.8 - 0.0 - - - - - - -
25/09:00am 27.5 ENE 11 13 1015.8 - 0.0 - - - - - - -
25/08:30am 27.0 ENE 9 13 1015.8 - 0.0 - - - - - - -
25/08:00am 26.9 ENE 9 12 1015.9 - 0.0 - - - - - - -
25/07:30am 25.6 E 9 13 1015.9 - 0.0 - - - - - - -
25/07:00am 23.8 E 11 14 1015.6 - 0.0 - - - - - - -
25/06:30am 22.2 E 11 13 1015.5 - 0.0 - - - - - - -
25/06:00am 22.2 E 11 16 1015.4 - 0.0 - - - - - - -
25/05:30am 22.3 E 11 15 1015.4 - 0.0 - - - - - - -
25/05:00am 22.6 E 12 15 1015.2 - 0.0 - - - - - - -
25/04:30am 22.7 ESE 12 15 1015.1 - 0.0 - - - - - - -
25/04:00am 23.2 ESE 13 15 1015.1 - 0.0 - - - - - - -
25/03:30am 23.4 ESE 12 14 1015.3 - 0.0 - - - - - - -
25/03:00am 23.5 ESE 13 19 1015.4 - 0.0 - - - - - - -
25/02:30am 22.9 ESE 13 16 1015.7 - 0.0 - - - - - - -
25/02:00am 22.4 ESE 13 15 1015.9 - 0.0 - - - - - - -
25/01:30am 21.9 SE 13 15 1016.1 - 0.0 - - - - - - -
25/01:00am 22.1 SE 12 14 1016.5 - 0.0 - - - - - - -
25/12:30am 22.1 SE 11 13 1016.9 - 0.0 - - - - - - -
25/12:00am 22.3 SE 12 14 1017.5 - 0.0 - - - - - - -
 
Date/Time
WST
Temp
°C
Wind Pressure Rain since
9am
mm
Weather Cloud Vis
km
Sea
Height
m
Swell
Dir  Spd
kts
Gust
kts
hPa Trend Height
m
Period
s
Dir
24/11:30pm 22.4 SE 12 16 1017.8 - 0.0 - - - - - - -
24/11:00pm 22.6 SE 13 17 1017.9 - 0.0 - - - - - - -
24/10:30pm 22.8 SE 12 16 1018.1 - 0.0 - - - - - - -
24/10:00pm 22.9 SE 12 16 1018.2 - 0.0 - - - - - - -
24/09:30pm 22.9 SSE 12 17 1018.2 - 0.0 - - - - - - -
24/09:00pm 23.1 SSE 12 15 1018.3 - 0.0 - - - - - - -
24/08:30pm 23.6 SSE 11 14 1018.2 - 0.0 - - - - - - -
24/08:00pm 24.7 SSW 7 8 1017.9 - 0.0 - - - - - - -
24/07:30pm 23.6 SSW 8 9 1017.9 - 0.0 - - - - - - -
24/07:00pm 23.1 SSW 9 11 1017.7 - 0.0 - - - - - - -
24/06:30pm 23.7 SW 10 13 1017.7 - 0.0 - - - - - - -
24/06:00pm 24.5 SSW 11 17 1017.9 - 0.0 - - - - - - -
24/05:30pm 28.1 SW 7 10 1017.9 - 0.0 - - - - - - -
24/05:00pm 31.0 NE 5 6 1018.0 - 0.0 - - - - - - -
24/04:30pm 31.4 NE 6 7 1018.0 - 0.0 - - - - - - -
24/04:00pm 31.3 NE 8 9 1018.2 - 0.0 - - - - - - -
24/03:30pm 31.9 NE 8 10 1018.4 - 0.0 - - - - - - -
24/03:00pm 31.6 ENE 9 12 1018.5 - 0.0 - - - - - - -
24/02:30pm 31.5 ENE 10 13 1018.7 - 0.0 - - - - - - -
24/02:00pm 31.2 ENE 11 13 1019.2 - 0.0 - - - - - - -
24/01:30pm 31.0 ENE 11 13 1019.5 - 0.0 - - - - - - -
24/01:00pm 30.8 E 10 13 1019.8 - 0.0 - - - - - - -
24/12:30pm 29.2 E 12 15 1020.0 - 0.0 - - - - - - -
24/12:00pm 28.8 E 13 15 1020.2 - 0.0 - - - - - - -
24/11:30am 27.0 E 14 18 1020.6 - 0.0 - - - - - - -
24/11:00am 27.2 ESE 14 18 1020.9 - 0.0 - - - - - - -
24/10:30am 26.0 ESE 15 19 1021.2 - 0.0 - - - - - - -
24/10:00am 24.3 ESE 15 21 1021.3 - 0.0 - - - - - - -

Other Formats:

Comma delimited format used in spreadsheet applications
http://www.bom.gov.au/fwo/IDW60701/IDW60701.94600.axf

JavaScript Object Notation format (JSON) in row-major order
http://www.bom.gov.au/fwo/IDW60701/IDW60701.94600.json